Time;durP1;ratioP1;P1;durP2;ratioP2;P2;SDS_P1;SDS_P2;PMS_P1;PMS_P2;Temp;Humidity;BMP_temperature;BMP_pressure;BME280_temperature;BME280_humidity;BME280_pressure;Samples;Min_cycle;Max_cycle;Signal;HPM_P1;HPM_P2
2022/06/04 00:01:25;;;;;;;5.70;2.65;;;;;;;16.92;100.00;100651.25;5092005;28;20523;-71
2022/06/04 00:03:50;;;;;;;7.07;2.13;;;;;;;16.88;100.00;100649.78;5091044;28;20035;-70
2022/06/04 00:06:16;;;;;;;4.25;2.40;;;;;;;16.97;100.00;100665.03;5088711;28;20032;-70
2022/06/04 00:08:41;;;;;;;8.70;2.33;;;;;;;16.96;100.00;100666.00;5090385;28;20040;-70
2022/06/04 00:16:34;;;;;;;3.10;1.80;;;;;;;16.88;100.00;100649.78;5083137;28;20039;-70
2022/06/04 00:18:59;;;;;;;3.97;2.67;;;;;;;16.82;100.00;100651.06;5082428;28;20024;-70
2022/06/04 00:21:25;;;;;;;3.15;1.80;;;;;;;16.59;100.00;100627.13;5087303;28;20459;-70
2022/06/04 00:23:50;;;;;;;4.30;2.20;;;;;;;16.86;100.00;100670.28;5089082;28;20032;-69
2022/06/04 00:26:16;;;;;;;3.30;1.88;;;;;;;16.84;100.00;100665.06;5091202;28;20059;-68
2022/06/04 00:28:42;;;;;;;5.93;2.75;;;;;;;16.76;100.00;100670.06;5088588;28;20024;-68
2022/06/04 00:31:08;;;;;;;4.95;2.08;;;;;;;16.79;100.00;100669.88;5091139;28;20488;-69
2022/06/04 00:33:33;;;;;;;4.95;2.20;;;;;;;16.50;100.00;100633.91;5075344;28;20050;-70
2022/06/04 00:35:59;;;;;;;4.75;2.05;;;;;;;16.36;100.00;100604.84;5081278;28;20019;-70
2022/06/04 00:38:28;;;;;;;8.48;2.63;;;;;;;16.71;100.00;100661.59;5079091;28;20030;-69
2022/06/04 00:41:03;;;;;;;14.10;2.17;;;;;;;16.52;100.00;100647.06;5061590;28;20139;-71
2022/06/04 00:43:29;;;;;;;3.35;1.95;;;;;;;16.63;100.00;100663.94;5077544;28;20069;-70
2022/06/04 00:46:33;;;;;;;6.50;2.03;;;;;;;16.64;100.00;100670.94;5068844;28;20558;-70
2022/06/04 00:48:58;;;;;;;4.13;2.22;;;;;;;16.60;100.00;100673.91;5064753;28;20573;-70
2022/06/04 00:51:24;;;;;;;4.18;2.22;;;;;;;16.55;100.00;100684.00;5065625;28;20024;-70
2022/06/04 00:53:50;;;;;;;3.92;2.03;;;;;;;16.49;100.00;100679.13;5072892;28;20079;-70
2022/06/04 00:56:33;;;;;;;4.85;2.25;;;;;;;16.54;100.00;100695.56;5084759;28;20121;-70
2022/06/04 00:59:40;;;;;;;4.28;1.83;;;;;;;16.54;100.00;100700.84;5075578;28;20177;-70
2022/06/04 01:02:36;;;;;;;4.72;2.38;;;;;;;16.44;100.00;100699.81;5085154;28;20031;-70
2022/06/04 01:05:26;;;;;;;5.88;2.30;;;;;;;16.38;100.00;100710.84;5078682;28;20088;-69
2022/06/04 01:07:58;;;;;;;4.45;2.10;;;;;;;16.25;100.00;100701.09;5069502;28;20494;-69
2022/06/04 01:10:43;;;;;;;3.30;1.90;;;;;;;16.28;100.00;100718.59;5077854;28;20089;-69
2022/06/04 01:13:18;;;;;;;3.03;1.58;;;;;;;16.28;100.00;100729.19;5084302;28;20044;-69
2022/06/04 01:16:03;;;;;;;4.90;2.90;;;;;;;16.26;100.00;100728.44;5084192;28;20081;-69
2022/06/04 01:19:00;;;;;;;3.67;1.90;;;;;;;16.21;100.00;100720.81;5088687;28;20044;-69
2022/06/04 01:21:44;;;;;;;4.50;2.05;;;;;;;16.18;100.00;100730.78;5084322;28;20021;-70
2022/06/04 01:24:47;;;;;;;4.35;2.33;;;;;;;16.10;100.00;100739.25;5071366;28;20033;-70
2022/06/04 01:27:22;;;;;;;2.17;1.13;;;;;;;16.08;100.00;100748.25;5083606;28;20036;-68
2022/06/04 01:29:54;;;;;;;4.63;2.20;;;;;;;16.04;100.00;100750.28;5085554;28;20583;-67
2022/06/04 01:32:20;;;;;;;4.70;2.10;;;;;;;15.97;100.00;100748.97;5069094;28;20036;-67
2022/06/04 01:35:19;;;;;;;3.85;2.00;;;;;;;15.94;100.00;100735.94;5079055;28;20034;-67
2022/06/04 01:37:55;;;;;;;3.13;1.92;;;;;;;15.86;100.00;100724.97;5065689;28;20529;-68
2022/06/04 01:43:13;;;;;;;4.82;2.03;;;;;;;15.78;100.00;100729.97;5081165;28;20109;-68
2022/06/04 01:45:40;;;;;;;3.00;1.65;;;;;;;15.67;100.00;100721.88;5077033;28;20023;-68
2022/06/04 01:48:07;;;;;;;5.00;1.83;;;;;;;15.67;100.00;100725.38;5071335;28;20111;-68
2022/06/04 01:50:36;;;;;;;3.88;1.90;;;;;;;15.67;100.00;100732.47;5080187;28;20057;-68
2022/06/04 01:53:02;;;;;;;5.18;1.65;;;;;;;15.55;100.00;100717.34;5083893;28;20105;-68
2022/06/04 01:55:47;;;;;;;6.32;2.13;;;;;;;15.43;100.00;100704.91;5083134;28;20070;-69
2022/06/04 01:58:27;;;;;;;4.20;2.03;;;;;;;15.45;100.00;100703.84;5069360;28;20107;-68
2022/06/04 02:00:59;;;;;;;4.03;2.13;;;;;;;15.44;100.00;100704.81;5085588;28;20081;-69
2022/06/04 02:03:54;;;;;;;5.32;2.33;;;;;;;15.43;100.00;100720.78;5076773;28;20133;-69
2022/06/04 02:06:22;;;;;;;2.58;1.65;;;;;;;15.40;100.00;100710.41;5070147;28;20091;-69
2022/06/04 02:08:58;;;;;;;4.80;1.77;;;;;;;15.41;100.00;100717.41;5079761;28;20200;-69
2022/06/04 02:11:24;;;;;;;10.13;2.15;;;;;;;15.35;100.00;100716.84;5078888;28;20192;-69
2022/06/04 02:13:54;;;;;;;4.10;2.20;;;;;;;15.22;100.00;100700.03;5067102;28;20086;-69
2022/06/04 02:16:31;;;;;;;7.28;2.30;;;;;;;15.25;100.00;100707.78;5084902;28;20103;-70
2022/06/04 02:18:58;;;;;;;5.10;1.80;;;;;;;15.19;100.00;100702.03;5079027;28;20036;-70
2022/06/04 02:21:25;;;;;;;2.35;1.50;;;;;;;14.97;100.00;100678.72;5072598;28;20067;-69
2022/06/04 02:23:50;;;;;;;5.10;2.40;;;;;;;15.10;100.00;100706.13;5081045;28;20068;-70
2022/06/04 02:26:17;;;;;;;5.95;2.35;;;;;;;14.84;100.00;100676.00;5067288;28;20801;-70
2022/06/04 02:28:42;;;;;;;5.47;2.70;;;;;;;14.95;100.00;100708.88;5076147;28;20035;-70
2022/06/04 02:31:25;;;;;;;6.13;2.40;;;;;;;14.79;100.00;100675.47;4985492;28;1608584;-70
2022/06/04 02:34:03;;;;;;;5.45;2.05;;;;;;;14.81;100.00;100691.22;5081266;28;20020;-69
2022/06/04 02:36:58;;;;;;;5.78;2.03;;;;;;;14.72;100.00;100697.13;5069969;28;20532;-70
2022/06/04 02:39:30;;;;;;;;;;;;;;;14.74;100.00;100696.06;5072209;28;20039;-70
2022/06/04 02:41:59;;;;;;;4.55;2.72;;;;;;;14.64;100.00;100704.66;5074867;28;19916;-69
2022/06/04 02:44:30;;;;;;;6.07;2.95;;;;;;;14.55;100.00;100694.66;5089062;28;20024;-69
2022/06/04 02:47:15;;;;;;;4.18;2.35;;;;;;;14.52;100.00;100702.78;5072360;28;20033;-69
2022/06/04 02:49:48;;;;;;;2.75;1.75;;;;;;;14.43;100.00;100684.84;5072985;28;20052;-69
2022/06/04 02:52:14;;;;;;;5.82;2.05;;;;;;;14.50;100.00;100691.47;5079047;28;20068;-69
2022/06/04 02:54:45;;;;;;;3.53;2.20;;;;;;;14.44;100.00;100687.38;5067472;28;20028;-67
2022/06/04 02:57:12;;;;;;;5.18;2.28;;;;;;;14.38;100.00;100676.34;5076758;28;20033;-70
2022/06/04 02:59:38;;;;;;;3.35;1.98;;;;;;;14.24;100.00;100656.84;5084200;28;20141;-70
2022/06/04 03:02:06;;;;;;;4.45;2.22;;;;;;;14.27;100.00;100661.09;5085397;28;20553;-70
2022/06/04 03:04:49;;;;;;;5.55;2.80;;;;;;;14.20;100.00;100663.25;5079946;28;20032;-67
2022/06/04 03:07:16;;;;;;;5.88;2.10;;;;;;;14.14;100.00;100657.50;5074654;28;20528;-70
2022/06/04 03:09:44;;;;;;;4.82;2.47;;;;;;;14.10;100.00;100645.41;5082328;28;20081;-71
2022/06/04 03:12:11;;;;;;;5.32;2.40;;;;;;;14.08;100.00;100657.88;5069868;28;20075;-70
2022/06/04 03:14:37;;;;;;;4.70;2.10;;;;;;;14.05;100.00;100664.22;5073977;28;20075;-70
2022/06/04 03:17:08;;;;;;;4.18;2.30;;;;;;;14.07;100.00;100667.59;5095218;28;20045;-70
2022/06/04 03:19:34;;;;;;;4.25;2.22;;;;;;;14.02;100.00;100659.13;5057728;28;20470;-71
2022/06/04 03:22:00;;;;;;;3.47;2.33;;;;;;;13.83;100.00;100637.34;5041182;28;20028;-70
2022/06/04 03:24:26;;;;;;;5.78;2.55;;;;;;;13.97;100.00;100663.81;5042411;28;20017;-71
2022/06/04 03:26:51;;;;;;;4.30;2.80;;;;;;;13.93;100.00;100657.00;5031190;28;20828;-69
2022/06/04 03:29:16;;;;;;;7.82;2.42;;;;;;;13.92;100.00;100668.53;5084261;28;20039;-69
2022/06/04 03:31:42;;;;;;;3.25;2.13;;;;;;;13.81;100.00;100661.25;5092029;28;20059;-69
2022/06/04 03:34:07;;;;;;;5.45;2.20;;;;;;;13.79;100.00;100673.66;5091335;28;20516;-69
2022/06/04 03:36:35;;;;;;;4.53;2.17;;;;;;;13.77;100.00;100674.72;5089635;28;20028;-70
2022/06/04 03:39:01;;;;;;;5.00;2.50;;;;;;;13.78;100.00;100681.69;5085352;28;20035;-70
2022/06/04 03:41:27;;;;;;;6.53;2.17;;;;;;;13.77;100.00;100687.91;5086036;28;20032;-69
2022/06/04 03:43:52;;;;;;;4.97;2.67;;;;;;;13.63;100.00;100672.00;5076715;28;20107;-69
2022/06/04 03:46:19;;;;;;;5.40;2.00;;;;;;;13.55;100.00;100671.63;5092392;28;20453;-69
2022/06/04 03:48:45;;;;;;;5.18;2.85;;;;;;;13.60;100.00;100698.59;5092868;28;20076;-69
2022/06/04 03:51:10;;;;;;;10.25;2.35;;;;;;;13.58;100.00;100708.41;5091841;28;20035;-70
2022/06/04 03:53:36;;;;;;;6.82;2.75;;;;;;;13.48;100.00;100700.19;5092793;28;20039;-70
2022/06/04 03:56:01;;;;;;;3.55;2.13;;;;;;;13.55;100.00;100714.69;5070909;28;20435;-71
2022/06/04 03:58:30;;;;;;;5.10;2.83;;;;;;;13.52;100.00;100711.41;5066068;28;20035;-71
2022/06/04 04:00:57;;;;;;;6.90;3.13;;;;;;;13.47;100.00;100716.09;5079083;28;20891;-71
2022/06/04 04:03:22;;;;;;;7.22;2.92;;;;;;;13.46;100.00;100707.31;5079728;28;20028;-71
2022/06/04 04:05:50;;;;;;;4.35;2.22;;;;;;;13.47;100.00;100714.31;5075574;28;20032;-71
2022/06/04 04:08:16;;;;;;;9.68;2.05;;;;;;;13.49;100.00;100736.19;5077836;28;20279;-71
2022/06/04 04:10:43;;;;;;;5.40;3.03;;;;;;;13.51;100.00;100741.38;5065616;28;20416;-71
2022/06/04 04:13:09;;;;;;;4.20;2.22;;;;;;;13.50;100.00;100739.69;5066766;28;20108;-71
2022/06/04 04:15:35;;;;;;;3.58;2.53;;;;;;;13.25;100.00;100708.53;5067179;28;20368;-71
2022/06/04 04:18:00;;;;;;;5.85;2.97;;;;;;;13.45;100.00;100744.38;5095699;28;20031;-71
2022/06/04 04:20:29;;;;;;;6.70;2.83;;;;;;;13.43;100.00;100740.94;5069284;28;20036;-71
2022/06/04 04:22:55;;;;;;;3.20;2.03;;;;;;;13.41;100.00;100733.13;5070995;28;20032;-71
2022/06/04 04:25:23;;;;;;;4.18;2.80;;;;;;;13.37;100.00;100734.25;5061454;28;20032;-71
2022/06/04 04:27:49;;;;;;;3.17;1.95;;;;;;;13.30;100.00;100733.75;5099067;28;20466;-70
2022/06/04 04:30:18;;;;;;;3.95;2.15;;;;;;;13.29;100.00;100728.53;5065300;28;20094;-70
2022/06/04 04:32:43;;;;;;;8.27;2.58;;;;;;;13.37;100.00;100741.31;5062213;28;20031;-70
2022/06/04 04:35:14;;;;;;;4.88;2.05;;;;;;;13.36;100.00;100740.44;5077619;28;20024;-71
2022/06/04 04:37:39;;;;;;;4.13;2.30;;;;;;;13.37;100.00;100742.16;5086392;28;20043;-71
2022/06/04 04:40:06;;;;;;;5.22;2.17;;;;;;;13.37;100.00;100736.88;5072241;28;20738;-71
2022/06/04 04:42:31;;;;;;;6.85;2.50;;;;;;;13.37;100.00;100738.66;5074628;28;20016;-71
2022/06/04 04:44:57;;;;;;;6.38;2.67;;;;;;;13.19;100.00;100711.50;5057823;28;20888;-71
2022/06/04 04:47:22;;;;;;;4.45;2.40;;;;;;;13.38;100.00;100737.75;5066078;28;20078;-71
2022/06/04 04:49:48;;;;;;;4.38;2.50;;;;;;;13.41;100.00;100743.69;5062481;28;21107;-72
2022/06/04 04:52:13;;;;;;;4.75;2.70;;;;;;;13.37;100.00;100738.66;5070441;28;20457;-70
2022/06/04 04:54:39;;;;;;;4.75;2.70;;;;;;;13.38;100.00;100751.78;5085775;28;20020;-71
2022/06/04 04:57:04;;;;;;;4.38;2.45;;;;;;;13.36;100.00;100751.00;5085088;28;20025;-70
2022/06/04 04:59:30;;;;;;;6.07;2.72;;;;;;;13.29;100.00;100747.88;5082337;28;20032;-70
2022/06/04 05:01:55;;;;;;;4.22;2.55;;;;;;;13.18;100.00;100728.31;5064640;28;20499;-71
2022/06/04 05:04:20;;;;;;;4.40;2.03;;;;;;;13.34;100.00;100754.69;5060653;28;20043;-71
2022/06/04 05:06:46;;;;;;;5.72;2.60;;;;;;;13.29;100.00;100750.50;5070952;28;20039;-72
2022/06/04 05:09:11;;;;;;;4.85;2.70;;;;;;;13.42;100.00;100763.03;5084521;28;20064;-72
2022/06/04 05:11:37;;;;;;;6.75;2.13;;;;;;;13.43;100.00;100759.44;5084444;28;20028;-72
2022/06/04 05:14:03;;;;;;;3.72;2.40;;;;;;;13.45;100.00;100763.69;5076097;28;20880;-70
2022/06/04 05:16:33;;;;;;;6.30;3.08;;;;;;;13.47;100.00;100761.81;5086129;28;20233;-71
2022/06/04 05:19:01;;;;;;;6.40;3.10;;;;;;;13.49;100.00;100765.22;5082411;28;20078;-71
2022/06/04 05:21:48;;;;;;;6.15;3.05;;;;;;;13.55;100.00;100759.59;5069221;28;20035;-71
2022/06/04 05:24:20;;;;;;;4.53;2.72;;;;;;;13.51;100.00;100751.94;5083983;28;20394;-71
2022/06/04 05:26:46;;;;;;;5.95;2.33;;;;;;;13.61;100.00;100774.25;5086263;28;20028;-71
2022/06/04 05:29:12;;;;;;;4.38;2.42;;;;;;;13.51;100.00;100765.16;5079082;28;20027;-71
2022/06/04 05:31:39;;;;;;;4.30;2.88;;;;;;;13.60;100.00;100772.53;5077942;28;20522;-72
2022/06/04 05:34:05;;;;;;;6.20;3.15;;;;;;;13.47;100.00;100761.81;5052611;28;20028;-71
2022/06/04 05:36:30;;;;;;;4.57;3.08;;;;;;;13.53;100.00;100774.69;5072307;28;20073;-72
2022/06/04 05:38:56;;;;;;;10.25;3.28;;;;;;;13.53;100.00;100773.81;5075973;28;20074;-71
2022/06/04 05:41:21;;;;;;;4.32;3.00;;;;;;;13.57;100.00;100778.00;5072193;28;20893;-71
2022/06/04 05:43:47;;;;;;;3.92;3.08;;;;;;;13.72;100.00;100795.63;5066765;28;20024;-71
2022/06/04 05:46:14;;;;;;;5.93;3.03;;;;;;;13.66;100.00;100774.81;5056849;28;20024;-70
2022/06/04 05:48:42;;;;;;;10.82;3.65;;;;;;;13.72;100.00;100783.25;5066286;28;20071;-71
2022/06/04 05:51:20;;;;;;;4.55;3.10;;;;;;;13.73;100.00;100792.03;5068612;28;20027;-70
2022/06/04 05:53:46;;;;;;;4.75;2.88;;;;;;;13.58;100.00;100761.22;5075780;28;20036;-70
2022/06/04 05:56:12;;;;;;;5.65;3.40;;;;;;;13.83;100.00;100803.78;5078505;28;20356;-71
2022/06/04 05:58:38;;;;;;;7.28;3.42;;;;;;;13.76;100.00;100799.78;5072288;28;20513;-70
2022/06/04 06:01:04;;;;;;;5.88;3.67;;;;;;;13.73;100.00;100799.94;5086940;28;20024;-71
2022/06/04 06:03:29;;;;;;;3.90;2.65;;;;;;;13.72;100.00;100800.91;5069995;28;20031;-70
2022/06/04 06:05:55;;;;;;;5.43;3.10;;;;;;;13.67;100.00;100795.03;5070466;28;20099;-70
2022/06/04 06:08:20;;;;;;;5.78;3.03;;;;;;;13.72;100.00;100803.56;5081494;28;20031;-70
2022/06/04 06:10:46;;;;;;;14.65;4.00;;;;;;;13.77;100.00;100807.63;5079066;28;20031;-70
2022/06/04 06:13:11;;;;;;;4.18;2.78;;;;;;;13.80;100.00;100794.25;5084892;28;20474;-71
2022/06/04 06:15:37;;;;;;;4.63;3.25;;;;;;;13.80;100.00;100788.09;5077389;28;20063;-71
2022/06/04 06:18:04;;;;;;;7.25;3.60;;;;;;;13.84;100.00;100800.19;5064637;28;20017;-71
2022/06/04 06:20:29;;;;;;;6.28;3.05;;;;;;;13.72;100.00;100777.16;5085841;28;20741;-71
2022/06/04 06:22:55;;;;;;;7.60;3.58;;;;;;;13.92;100.00;100811.19;5073846;28;20032;-70
2022/06/04 06:25:20;;;;;;;7.90;3.78;;;;;;;13.87;100.00;100804.44;5079172;28;20032;-70
2022/06/04 06:27:47;;;;;;;6.05;3.40;;;;;;;13.96;100.00;100833.00;5087487;28;20576;-71
2022/06/04 06:30:13;;;;;;;18.27;4.28;;;;;;;13.82;100.00;100805.56;5068745;28;20059;-70
2022/06/04 06:32:40;;;;;;;4.88;3.40;;;;;;;13.93;100.00;100823.44;5082335;28;20506;-71
2022/06/04 06:35:06;;;;;;;8.27;3.72;;;;;;;13.98;100.00;100837.25;5078267;28;20400;-70
2022/06/04 06:37:31;;;;;;;6.97;3.80;;;;;;;13.94;100.00;100834.88;5069651;28;20098;-71
2022/06/04 06:39:57;;;;;;;5.65;4.03;;;;;;;13.66;100.00;100802.09;5068666;28;20024;-70
2022/06/04 06:42:22;;;;;;;7.38;3.55;;;;;;;13.98;100.00;100849.59;5085732;28;20032;-71
2022/06/04 06:44:48;;;;;;;8.32;3.80;;;;;;;13.89;100.00;100834.28;5082256;28;20047;-71
2022/06/04 06:47:14;;;;;;;5.72;4.05;;;;;;;13.97;100.00;100848.75;5081512;28;20888;-70
2022/06/04 06:49:39;;;;;;;6.30;3.92;;;;;;;13.90;100.00;100844.75;5082593;28;20020;-71
2022/06/04 06:52:06;;;;;;;6.28;3.95;;;;;;;13.94;100.00;100834.88;5082855;28;20024;-71
2022/06/04 06:54:35;;;;;;;7.20;4.50;;;;;;;13.98;100.00;100834.63;5072213;28;20832;-71
2022/06/04 06:57:02;;;;;;;5.88;3.65;;;;;;;14.00;100.00;100843.28;5060883;28;20047;-71
2022/06/04 06:59:28;;;;;;;5.55;4.13;;;;;;;14.00;100.00;100830.09;5068011;28;20123;-71
2022/06/04 07:01:55;;;;;;;8.88;4.13;;;;;;;14.06;100.00;100840.28;5063375;28;20419;-71
2022/06/04 07:04:21;;;;;;;6.25;3.83;;;;;;;14.08;100.00;100851.66;5052680;28;20149;-71
2022/06/04 07:06:52;;;;;;;6.35;4.47;;;;;;;14.10;100.00;100836.53;5056297;28;20201;-71
2022/06/04 07:09:31;;;;;;;5.47;3.70;;;;;;;14.11;100.00;100826.81;5063320;28;20470;-71
2022/06/04 07:11:57;;;;;;;6.78;4.28;;;;;;;14.22;100.00;100824.41;5057065;28;20025;-72
2022/06/04 07:14:23;;;;;;;9.93;4.05;;;;;;;14.13;100.00;100803.78;5076228;28;20032;-71
2022/06/04 07:16:49;;;;;;;15.18;4.68;;;;;;;14.43;100.00;100835.56;5074334;28;20363;-71
2022/06/04 07:19:16;;;;;;;5.95;4.18;;;;;;;14.50;100.00;100834.25;5084325;28;20107;-71
2022/06/04 07:21:41;;;;;;;19.05;4.85;;;;;;;14.62;100.00;100838.81;5077855;28;20059;-71
2022/06/04 07:24:07;;;;;;;6.05;3.78;;;;;;;14.62;100.00;100810.56;5048635;28;20032;-71
2022/06/04 07:26:32;;;;;;;5.97;4.40;;;;;;;14.89;100.00;100836.28;5066468;28;20024;-71
2022/06/04 07:28:58;;;;;;;9.60;5.30;;;;;;;14.88;100.00;100814.25;5075628;28;20039;-71
2022/06/04 07:31:23;;;;;;;11.73;5.18;;;;;;;14.88;100.00;100811.63;5061159;28;20020;-70
2022/06/04 07:33:52;;;;;;;6.57;4.60;;;;;;;14.98;100.00;100823.34;5047282;28;20040;-71
2022/06/04 07:36:22;;;;;;;6.18;4.30;;;;;;;15.11;100.00;100821.63;5057504;28;20039;-71
2022/06/04 07:38:48;;;;;;;5.45;3.80;;;;;;;15.16;100.00;100814.28;5052405;28;20036;-72
2022/06/04 07:41:23;;;;;;;7.18;4.80;;;;;;;15.32;100.00;100825.59;5046775;28;20032;-71
2022/06/04 07:43:49;;;;;;;8.18;5.22;;;;;;;15.38;100.00;100834.13;5053299;28;20086;-70
2022/06/04 07:46:15;;;;;;;6.32;4.75;;;;;;;15.45;100.00;100841.56;5056913;28;20802;-71
2022/06/04 07:48:40;;;;;;;9.10;5.05;;;;;;;15.54;100.00;100845.47;5053577;28;20940;-71
2022/06/04 07:51:06;;;;;;;7.38;4.88;;;;;;;15.56;100.00;100844.41;5053060;28;20032;-71
2022/06/04 07:53:32;;;;;;;6.55;4.57;;;;;;;15.62;100.00;100846.66;5057365;28;20511;-69
2022/06/04 07:55:57;;;;;;;8.18;5.70;;;;;;;15.47;100.00;100822.94;5059080;28;20546;-68
2022/06/04 07:58:23;;;;;;;7.20;4.57;;;;;;;15.47;100.00;100818.50;5065969;28;20546;-71
2022/06/04 08:00:56;;;;;;;5.65;4.18;;;;;;;15.56;100.00;100815.28;5074347;28;20040;-71
2022/06/04 08:03:21;;;;;;;6.43;4.97;;;;;;;15.63;100.00;100821.03;5070034;28;20956;-71
2022/06/04 08:05:46;;;;;;;10.13;5.40;;;;;;;15.63;100.00;100811.28;5043925;28;20024;-71
2022/06/04 08:08:12;;;;;;;10.15;5.22;;;;;;;15.71;100.00;100819.59;5059211;28;20093;-71
2022/06/04 08:10:37;;;;;;;8.65;5.85;;;;;;;15.72;100.00;100807.19;5041274;28;20048;-71
2022/06/04 08:13:07;;;;;;;10.43;5.30;;;;;;;15.83;100.00;100815.28;5062048;28;20391;-70
2022/06/04 08:15:32;;;;;;;5.60;3.83;;;;;;;16.04;100.00;100824.50;5076814;28;20490;-71
2022/06/04 08:17:58;;;;;;;7.78;4.93;;;;;;;15.99;100.00;100792.13;5072861;28;20193;-71
2022/06/04 08:20:23;;;;;;;8.02;5.80;;;;;;;16.18;100.00;100816.50;5063163;28;20773;-69
2022/06/04 08:22:49;;;;;;;7.55;5.20;;;;;;;16.11;100.00;100809.88;5073172;28;20042;-71
2022/06/04 08:25:14;;;;;;;7.90;5.55;;;;;;;16.08;100.00;100806.59;5075838;28;20067;-70
2022/06/04 08:27:39;;;;;;;7.93;5.70;;;;;;;16.12;100.00;100827.47;5068926;28;20020;-71
2022/06/04 08:30:06;;;;;;;9.40;5.57;;;;;;;16.03;100.00;100828.09;5076509;28;20032;-72
2022/06/04 08:32:32;;;;;;;10.40;6.05;;;;;;;16.09;100.00;100832.97;5085073;28;20088;-71
2022/06/04 08:34:58;;;;;;;7.10;5.03;;;;;;;16.15;100.00;100827.31;5087429;28;20484;-70
2022/06/04 08:37:23;;;;;;;11.77;6.57;;;;;;;16.23;100.00;100843.53;5074639;28;20126;-71
2022/06/04 08:39:48;;;;;;;11.27;6.38;;;;;;;16.26;100.00;100864.53;5078275;28;20119;-66
2022/06/04 08:42:24;;;;;;;7.45;5.53;;;;;;;16.03;100.00;100843.13;5072008;28;20523;-72
2022/06/04 08:44:52;;;;;;;13.68;6.10;;;;;;;16.03;100.00;100846.66;5089564;27;20035;-71
2022/06/04 08:47:28;;;;;;;15.82;5.40;;;;;;;16.26;100.00;100851.28;5066395;28;20028;-71
2022/06/04 08:50:01;;;;;;;11.13;7.25;;;;;;;16.10;100.00;100844.44;5066005;28;20036;-70
2022/06/04 08:52:38;;;;;;;10.27;5.65;;;;;;;15.95;100.00;100856.91;5084240;28;20035;-71
2022/06/04 08:58:11;;;;;;;7.32;5.90;;;;;;;16.02;100.00;100855.53;5077944;28;20085;-70
2022/06/04 09:01:01;;;;;;;7.72;5.47;;;;;;;16.12;100.00;100846.03;5073208;28;20024;-69
2022/06/04 09:03:33;;;;;;;9.45;6.15;;;;;;;16.06;100.00;100833.19;5049996;28;20470;-69
2022/06/04 09:06:34;;;;;;;7.65;6.00;;;;;;;16.30;100.00;100851.94;5063812;28;20028;-70
2022/06/04 09:09:14;;;;;;;8.23;5.72;;;;;;;16.47;100.00;100854.31;5047079;28;20040;-71
2022/06/04 09:12:14;;;;;;;8.68;5.93;;;;;;;16.72;100.00;100859.69;5050190;28;20415;-71
2022/06/04 09:14:46;;;;;;;8.43;5.80;;;;;;;16.90;100.00;100846.94;5026060;28;20908;-71
2022/06/04 09:17:15;;;;;;;7.28;5.65;;;;;;;16.99;100.00;100846.31;5047199;28;20039;-72
2022/06/04 09:19:43;;;;;;;9.70;6.68;;;;;;;16.98;100.00;100849.94;5044565;28;20024;-71
2022/06/04 09:22:22;;;;;;;8.05;6.03;;;;;;;17.18;100.00;100870.63;5059429;28;20131;-71
2022/06/04 09:24:48;;;;;;;10.32;6.60;;;;;;;17.09;100.00;100852.69;5047198;28;20020;-69
2022/06/04 09:27:31;;;;;;;10.45;6.70;;;;;;;17.17;100.00;100860.97;5047630;28;20911;-70
2022/06/04 09:30:19;;;;;;;10.25;7.00;;;;;;;17.22;100.00;100861.50;5038650;28;20068;-70
2022/06/04 09:33:06;;;;;;;13.57;7.15;;;;;;;17.30;100.00;100869.75;5040476;28;20413;-71
2022/06/04 09:35:37;;;;;;;10.70;7.10;;;;;;;17.28;100.00;100873.50;5035281;28;20136;-69
2022/06/04 09:38:03;;;;;;;11.02;7.20;;;;;;;17.21;100.00;100857.13;5042655;28;20059;-71
2022/06/04 09:40:30;;;;;;;12.40;7.18;;;;;;;17.26;100.00;100865.66;5043060;28;20034;-72
2022/06/04 09:43:17;;;;;;;11.35;5.90;;;;;;;17.47;100.00;100851.81;5046335;28;20024;-72
2022/06/04 09:45:51;;;;;;;8.75;6.32;;;;;;;17.73;100.00;100851.66;5046660;28;20852;-72
2022/06/04 09:48:22;;;;;;;10.57;7.15;;;;;;;17.81;100.00;100867.06;5040410;28;20087;-71
2022/06/04 09:50:58;;;;;;;9.48;6.15;;;;;;;18.04;100.00;100868.03;5034439;28;20139;-72
2022/06/04 09:53:30;;;;;;;13.60;7.30;;;;;;;17.94;100.00;100857.22;5044756;28;20832;-67
2022/06/04 09:56:05;;;;;;;9.77;7.68;;;;;;;17.94;100.00;100867.84;5045873;28;20135;-68
2022/06/04 09:58:39;;;;;;;10.90;7.55;;;;;;;17.69;100.00;100865.25;5030683;28;20091;-71
2022/06/04 10:01:08;;;;;;;10.88;7.10;;;;;;;17.84;100.00;100865.00;5046378;28;20028;-71
2022/06/04 10:03:36;;;;;;;7.95;5.90;;;;;;;18.05;100.00;100862.56;5036682;28;20066;-72
2022/06/04 10:06:23;;;;;;;13.88;7.53;;;;;;;18.29;100.00;100867.88;5042908;28;20020;-73
2022/06/04 10:11:57;;;;;;;9.30;6.93;;;;;;;18.71;100.00;100871.81;5044199;28;20107;-66
2022/06/04 10:14:37;;;;;;;10.43;6.47;;;;;;;18.67;100.00;100830.44;5044378;28;20080;-72
2022/06/04 10:17:24;;;;;;;9.35;7.50;;;;;;;19.15;100.00;100874.56;5046728;28;20125;-72
2022/06/04 10:19:52;;;;;;;8.65;6.15;;;;;;;19.38;100.00;100880.75;5034367;28;20152;-71
2022/06/04 10:22:17;;;;;;;13.68;7.22;;;;;;;19.18;100.00;100838.84;5045952;28;20023;-72
2022/06/04 10:24:55;;;;;;;9.13;7.63;;;;;;;19.58;100.00;100879.19;5044559;28;20024;-69
2022/06/04 10:27:42;;;;;;;14.27;7.10;;;;;;;19.50;100.00;100870.97;5042663;28;20036;-71
2022/06/04 10:30:16;;;;;;;11.93;7.35;;;;;;;19.69;100.00;100879.19;5043364;28;20520;-72
2022/06/04 10:33:00;;;;;;;14.98;7.57;;;;;;;19.90;100.00;100872.13;5045875;28;20109;-72
2022/06/04 10:36:01;;;;;;;10.82;7.35;;;;;;;20.00;100.00;100866.88;5045590;28;20919;-73
2022/06/04 10:38:34;;;;;;;9.95;7.20;;;;;;;20.06;100.00;100871.72;5044084;28;20044;-73
2022/06/04 10:41:09;;;;;;;9.10;7.75;;;;;;;20.05;100.00;100859.34;5045463;28;20029;-71
2022/06/04 10:43:44;;;;;;;11.55;7.40;;;;;;;20.11;100.00;100880.22;5050039;28;20035;-71
2022/06/04 10:46:18;;;;;;;10.65;7.95;;;;;;;20.21;100.00;100889.97;5049163;28;20032;-69
2022/06/04 10:48:44;;;;;;;12.60;8.30;;;;;;;20.31;100.00;100888.28;5047613;28;20028;-72
2022/06/04 10:51:27;;;;;;;10.05;7.85;;;;;;;20.49;100.00;100871.69;5047990;28;20039;-72
2022/06/04 10:54:23;;;;;;;10.15;7.63;;;;;;;20.67;100.00;100886.19;5049077;28;20035;-68
2022/06/04 10:57:00;;;;;;;10.98;8.15;;;;;;;20.74;100.00;100884.69;5045770;28;20024;-66
2022/06/04 10:59:46;;;;;;;20.42;9.07;;;;;;;20.65;100.00;100864.13;5030323;28;20036;-70
2022/06/04 11:02:41;;;;;;;13.02;9.73;;;;;;;20.80;100.00;100869.00;5042540;28;20048;-65
2022/06/04 11:05:14;;;;;;;12.25;8.38;;;;;;;20.73;100.00;100849.13;5046001;28;20129;-69
2022/06/04 11:07:53;;;;;;;10.35;6.93;;;;;;;21.09;100.00;100874.50;5051500;28;20028;-71
2022/06/04 11:10:23;;;;;;;8.23;7.22;;;;;;;21.64;100.00;100867.88;5032894;28;20856;-72
2022/06/04 11:12:54;;;;;;;10.95;8.30;;;;;;;22.33;100.00;100875.91;5050672;28;20146;-70
2022/06/04 11:15:23;;;;;;;13.40;7.60;;;;;;;22.35;100.00;100865.91;5042607;28;20032;-72
2022/06/04 11:17:58;;;;;;;11.73;8.10;;;;;;;22.73;100.00;100886.50;5049087;28;20075;-71
2022/06/04 11:20:29;;;;;;;9.40;7.65;;;;;;;22.52;100.00;100816.13;5035747;28;20043;-72
2022/06/04 11:23:14;;;;;;;10.00;8.05;;;;;;;23.09;100.00;100891.09;5047360;28;20894;-71
2022/06/04 11:25:42;;;;;;;10.70;8.10;;;;;;;23.35;100.00;100883.25;5039242;28;20031;-69
2022/06/04 11:28:11;;;;;;;11.00;8.35;;;;;;;23.57;100.00;100865.94;5049442;28;20032;-72
2022/06/04 11:30:52;;;;;;;13.02;7.60;;;;;;;23.68;100.00;100873.81;5047511;28;20932;-67
2022/06/04 11:33:52;;;;;;;11.45;8.10;;;;;;;23.50;97.74;100856.81;5039853;28;20896;-67
2022/06/04 11:36:40;;;;;;;10.45;7.18;;;;;;;23.67;100.00;100834.53;5035638;28;20078;-69
2022/06/04 11:39:44;;;;;;;7.75;5.47;;;;;;;24.30;98.38;100848.84;5039440;28;20873;-71
2022/06/04 11:42:21;;;;;;;8.80;5.97;;;;;;;25.36;96.47;100854.81;5042348;28;20155;-72
2022/06/04 11:45:11;;;;;;;12.63;6.68;;;;;;;26.41;87.87;100835.44;5044789;28;20066;-72
2022/06/04 11:47:49;;;;;;;8.93;6.20;;;;;;;27.12;84.50;100840.09;5044908;28;20972;-73
2022/06/04 11:50:25;;;;;;;8.55;5.95;;;;;;;27.55;81.77;100819.88;5048000;28;20097;-70